Time;durP1;ratioP1;P1;durP2;ratioP2;P2;SDS_P1;SDS_P2;PMS_P1;PMS_P2;Temp;Humidity;BMP_temperature;BMP_pressure;BME280_temperature;BME280_humidity;BME280_pressure;Samples;Min_cycle;Max_cycle;Signal;HPM_P1;HPM_P2
2022/12/23 00:01:14;;;;;;;;;;;;;;;1.47;66.76;95147.22;5114860;28;1186;-59
2022/12/23 00:03:40;;;;;;;;;;;;;;;1.30;66.61;95145.75;5114948;28;1668;-59
2022/12/23 00:06:08;;;;;;;;;;;;;;;1.03;67.27;95137.94;5113617;28;1456;-58
2022/12/23 00:08:35;;;;;;;;;;;;;;;0.94;67.82;95133.28;5114789;28;1997;-59
2022/12/23 00:11:02;;;;;;;;;;;;;;;1.07;67.54;95141.22;5114931;28;1011;-59
2022/12/23 00:16:13;;;;;;;;;;;;;;;1.16;67.84;95135.31;5114447;28;1155;-59
2022/12/23 00:18:40;;;;;;;;;;;;;;;1.05;67.01;95145.75;5114454;28;1032;-59
2022/12/23 00:21:08;;;;;;;;;;;;;;;0.89;67.75;95138.00;5114840;28;1003;-59
2022/12/23 00:23:35;;;;;;;;;;;;;;;0.92;67.88;95140.44;5113423;28;997;-59
2022/12/23 00:26:02;;;;;;;;;;;;;;;0.97;68.23;95141.84;5113521;28;1379;-59
2022/12/23 00:28:29;;;;;;;;;;;;;;;0.95;67.83;95138.47;5114241;28;2001;-59
2022/12/23 00:31:03;;;;;;;;;;;;;;;0.93;67.03;95132.47;5113191;28;1094;-59
2022/12/23 00:33:31;;;;;;;;;;;;;;;0.93;66.89;95135.09;5114327;28;1078;-59
2022/12/23 00:35:57;;;;;;;;;;;;;;;0.89;67.28;95138.88;5114071;28;1518;-58
2022/12/23 00:43:57;;;;;;;;;;;;;;;0.82;67.33;95142.03;5113291;28;1016;-59
2022/12/23 00:46:24;;;;;;;;;;;;;;;0.74;67.87;95138.09;5114287;28;1016;-59
2022/12/23 00:51:35;;;;;;;;;;;;;;;0.84;67.91;95135.69;5114015;28;1040;-59
2022/12/23 00:54:01;;;;;;;;;;;;;;;0.95;67.70;95135.81;5112810;28;1052;-59
2022/12/23 00:56:27;;;;;;;;;;;;;;;1.00;67.12;95146.03;5112819;28;1035;-58
2022/12/23 00:58:54;;;;;;;;;;;;;;;1.00;67.05;95142.56;5114015;28;1031;-59
2022/12/23 01:06:50;;;;;;;;;;;;;;;0.73;67.81;95141.66;5113863;28;1995;-59
2022/12/23 01:09:16;;;;;;;;;;;;;;;0.81;67.73;95141.16;5112712;28;1025;-59
2022/12/23 01:11:43;;;;;;;;;;;;;;;0.83;67.57;95147.16;5113972;28;1495;-59
2022/12/23 01:14:10;;;;;;;;;;;;;;;0.79;67.91;95153.56;5112815;28;999;-59
2022/12/23 01:16:37;;;;;;;;;;;;;;;0.85;68.05;95149.69;5113848;28;1015;-59
2022/12/23 01:19:04;;;;;;;;;;;;;;;0.74;67.29;95142.50;5113618;28;1549;-59
2022/12/23 01:21:31;;;;;;;;;;;;;;;0.46;68.27;95135.59;5113739;28;1007;-59
2022/12/23 01:23:57;;;;;;;;;;;;;;;0.36;68.85;95135.34;5114028;28;1669;-59
2022/12/23 01:26:25;;;;;;;;;;;;;;;0.50;68.94;95139.72;5112417;28;1035;-59
2022/12/23 01:28:55;;;;;;;;;;;;;;;0.61;69.05;95139.88;5112419;28;1906;-59
2022/12/23 01:31:22;;;;;;;;;;;;;;;0.62;67.70;95131.00;5113587;28;1035;-59
2022/12/23 01:33:48;;;;;;;;;;;;;;;0.56;68.41;95120.91;5112413;28;1103;-59
2022/12/23 01:36:15;;;;;;;;;;;;;;;0.57;68.43;95130.50;5113860;28;1528;-59
2022/12/23 01:38:41;;;;;;;;;;;;;;;0.60;68.46;95114.47;5099799;28;1475;-59
2022/12/23 01:42:42;;;;;;;;;;;;;;;0.71;68.44;95113.78;5117714;28;1631;-59
2022/12/23 01:43:56;;;;;;;;;;;;;;;0.86;68.07;95122.44;5117612;28;1068;-59
2022/12/23 01:46:22;;;;;;;;;;;;;;;0.85;67.67;95113.69;5116438;28;1676;-59
2022/12/23 01:48:51;;;;;;;;;;;;;;;0.74;68.32;95103.03;5117347;28;1991;-59
2022/12/23 01:51:22;;;;;;;;;;;;;;;0.73;67.78;95110.09;5117423;28;1059;-59
2022/12/23 01:53:52;;;;;;;;;;;;;;;0.63;67.72;95110.81;5117343;28;1655;-59
2022/12/23 01:56:25;;;;;;;;;;;;;;;0.54;68.06;95107.00;5117388;28;1107;-59
2022/12/23 01:58:54;;;;;;;;;;;;;;;0.55;68.68;95114.78;5117317;28;1044;-59
2022/12/23 02:04:07;;;;;;;;;;;;;;;0.27;68.45;95110.50;5117263;28;1032;-58
2022/12/23 02:09:25;;;;;;;;;;;;;;;0.11;70.50;95113.25;5117082;28;1011;-58
2022/12/23 02:12:10;;;;;;;;;;;;;;;0.25;69.86;95115.00;5117139;28;1036;-59
2022/12/23 02:17:27;;;;;;;;;;;;;;;0.56;68.90;95111.19;5116940;28;1019;-59
2022/12/23 02:20:12;;;;;;;;;;;;;;;0.69;68.30;95107.78;5116868;28;1055;-59
2022/12/23 02:22:47;;;;;;;;;;;;;;;0.61;68.80;95099.53;5117027;28;1028;-58
2022/12/23 02:25:13;;;;;;;;;;;;;;;0.66;68.82;95114.06;5116528;28;1565;-58
2022/12/23 02:27:58;;;;;;;;;;;;;;;0.78;68.67;95108.00;5116701;28;1981;-58
2022/12/23 02:30:29;;;;;;;;;;;;;;;0.87;69.08;95106.53;5116606;28;991;-58
2022/12/23 02:33:10;;;;;;;;;;;;;;;0.95;69.01;95104.22;5116973;27;1101;-59
2022/12/23 02:35:56;;;;;;;;;;;;;;;0.91;68.88;95101.91;5116698;28;1007;-59
2022/12/23 02:38:28;;;;;;;;;;;;;;;0.93;68.69;95106.13;5116584;28;1098;-59
2022/12/23 02:41:18;;;;;;;;;;;;;;;1.07;69.02;95107.81;5116481;28;1067;-59
2022/12/23 02:43:47;;;;;;;;;;;;;;;1.16;68.93;95099.28;5116511;28;1023;-59
2022/12/23 02:46:16;;;;;;;;;;;;;;;1.27;68.70;95098.56;5116497;28;1015;-59
2022/12/23 02:48:42;;;;;;;;;;;;;;;1.38;69.08;95107.50;5115311;28;1902;-59
2022/12/23 02:51:11;;;;;;;;;;;;;;;1.41;68.52;95108.13;5116280;28;1047;-59
2022/12/23 02:53:41;;;;;;;;;;;;;;;1.47;68.84;95106.88;5115239;28;985;-59
2022/12/23 02:56:09;;;;;;;;;;;;;;;1.44;68.71;95093.91;5116438;28;1034;-59
2022/12/23 02:58:40;;;;;;;;;;;;;;;1.41;68.94;95088.84;5116244;28;1051;-59
2022/12/23 03:01:07;;;;;;;;;;;;;;;1.42;69.48;95087.88;5115962;28;1196;-59
2022/12/23 03:03:34;;;;;;;;;;;;;;;1.56;69.63;95095.69;5115840;28;1244;-59
2022/12/23 03:06:01;;;;;;;;;;;;;;;1.64;69.42;95087.25;5116034;27;1118;-59
2022/12/23 03:08:30;;;;;;;;;;;;;;;1.66;69.81;95094.06;5115881;28;1991;-59
2022/12/23 03:11:04;;;;;;;;;;;;;;;1.59;70.19;95094.63;5115933;28;1106;-59
2022/12/23 03:13:49;;;;;;;;;;;;;;;1.59;69.97;95097.25;5114637;28;1094;-59
2022/12/23 03:16:22;;;;;;;;;;;;;;;1.72;69.75;95114.72;5115762;28;1047;-59
2022/12/23 03:19:05;;;;;;;;;;;;;;;1.79;70.04;95107.25;5115798;28;1055;-59
2022/12/23 03:21:39;;;;;;;;;;;;;;;1.77;69.64;95109.16;5115725;28;1016;-59
2022/12/23 03:24:11;;;;;;;;;;;;;;;1.72;69.55;95104.19;5114508;28;1044;-59
2022/12/23 03:26:39;;;;;;;;;;;;;;;1.59;69.86;95108.63;5115470;28;1079;-59
2022/12/23 03:29:16;;;;;;;;;;;;;;;1.57;70.23;95102.63;5115537;28;1107;-59
2022/12/23 03:31:43;;;;;;;;;;;;;;;1.31;70.83;95084.22;5115536;28;1103;-59
2022/12/23 03:34:12;;;;;;;;;;;;;;;1.48;70.96;95090.09;5114563;28;1415;-59
2022/12/23 03:36:50;;;;;;;;;;;;;;;1.66;70.11;95077.44;5115408;28;1007;-59
2022/12/23 03:39:19;;;;;;;;;;;;;;;1.72;70.33;95083.09;5115350;28;1020;-59
2022/12/23 03:41:48;;;;;;;;;;;;;;;1.81;69.70;95086.03;5115599;28;1014;-59
2022/12/23 03:44:20;;;;;;;;;;;;;;;1.80;70.04;95076.44;5115238;28;1056;-59
2022/12/23 03:46:51;;;;;;;;;;;;;;;1.70;70.47;95069.19;5115229;28;1984;-59
2022/12/23 03:49:27;;;;;;;;;;;;;;;1.65;70.21;95068.69;5115131;28;1597;-59
2022/12/23 03:52:06;;;;;;;;;;;;;;;1.72;69.88;95069.91;5115473;28;1051;-59
2022/12/23 03:54:38;;;;;;;;;;;;;;;1.83;70.03;95070.97;5115038;28;1040;-59
2022/12/23 03:57:06;;;;;;;;;;;;;;;1.91;69.98;95077.34;5115080;28;1032;-59
2022/12/23 03:59:37;;;;;;;;;;;;;;;1.78;70.09;95079.19;5114916;28;1146;-59
2022/12/23 04:02:23;;;;;;;;;;;;;;;1.68;70.65;95080.78;5114749;28;1377;-59
2022/12/23 04:04:49;;;;;;;;;;;;;;;1.65;71.33;95088.91;5115192;28;1048;-59
2022/12/23 04:07:18;;;;;;;;;;;;;;;1.67;71.25;95084.38;5114824;28;1909;-59
2022/12/23 04:09:45;;;;;;;;;;;;;;;1.74;70.93;95086.47;5114846;28;1067;-59
2022/12/23 04:12:13;;;;;;;;;;;;;;;1.73;70.98;95081.31;5114754;28;1035;-59
2022/12/23 04:14:44;;;;;;;;;;;;;;;1.74;71.19;95081.19;5114630;28;1044;-59
2022/12/23 04:17:10;;;;;;;;;;;;;;;1.81;71.02;95083.41;5114660;28;1047;-59
2022/12/23 04:19:37;;;;;;;;;;;;;;;1.81;71.32;95078.13;5096768;28;1439;-59
2022/12/23 04:22:03;;;;;;;;;;;;;;;1.82;71.28;95083.31;5113330;28;1123;-59
2022/12/23 04:24:29;;;;;;;;;;;;;;;1.82;71.49;95087.72;5114581;28;952;-59
2022/12/23 04:26:55;;;;;;;;;;;;;;;1.71;71.50;95084.06;5113307;28;1987;-60
2022/12/23 04:29:21;;;;;;;;;;;;;;;1.70;71.35;95087.63;5114296;28;1031;-60
2022/12/23 04:31:47;;;;;;;;;;;;;;;1.67;71.41;95094.91;5114405;28;1020;-60
2022/12/23 04:34:13;;;;;;;;;;;;;;;1.72;71.23;95095.44;5114299;28;1202;-60
2022/12/23 04:36:39;;;;;;;;;;;;;;;1.80;71.42;95108.06;5113213;28;1127;-60
2022/12/23 04:39:05;;;;;;;;;;;;;;;1.78;71.22;95113.44;5113229;28;1148;-60
2022/12/23 04:41:31;;;;;;;;;;;;;;;1.86;70.92;95099.72;5114217;28;1027;-60
2022/12/23 04:43:57;;;;;;;;;;;;;;;1.93;70.58;95103.59;5114207;28;1028;-59
2022/12/23 04:46:23;;;;;;;;;;;;;;;1.94;70.93;95090.31;5114330;28;1071;-60
2022/12/23 04:48:49;;;;;;;;;;;;;;;1.91;70.93;95102.88;5146907;27;1909;-60
2022/12/23 04:51:15;;;;;;;;;;;;;;;1.88;71.08;95097.84;5114070;28;1059;-60
2022/12/23 04:53:41;;;;;;;;;;;;;;;1.92;71.16;95094.88;5114077;28;1130;-60
2022/12/23 04:56:08;;;;;;;;;;;;;;;2.01;70.55;95082.81;5112956;28;1337;-60
2022/12/23 04:58:34;;;;;;;;;;;;;;;2.08;70.14;95085.84;5113959;28;1039;-60
2022/12/23 05:01:04;;;;;;;;;;;;;;;2.08;70.33;95088.47;5113828;28;1099;-60
2022/12/23 05:03:30;;;;;;;;;;;;;;;2.03;70.63;95091.47;5113943;28;917;-60
2022/12/23 05:05:56;;;;;;;;;;;;;;;1.95;71.32;95099.94;5112788;28;1047;-60
2022/12/23 05:08:23;;;;;;;;;;;;;;;1.92;71.11;95101.94;5113768;28;1986;-60
2022/12/23 05:10:49;;;;;;;;;;;;;;;1.91;71.19;95098.44;5112307;28;1027;-60
2022/12/23 05:13:15;;;;;;;;;;;;;;;1.98;71.18;95108.56;5112612;28;1028;-60
2022/12/23 05:15:45;;;;;;;;;;;;;;;2.02;70.94;95100.31;5113735;28;1084;-60
2022/12/23 05:18:11;;;;;;;;;;;;;;;2.12;70.80;95106.59;5112848;28;1048;-62
2022/12/23 05:20:37;;;;;;;;;;;;;;;2.15;70.47;95106.38;5112734;28;1049;-59
2022/12/23 05:23:03;;;;;;;;;;;;;;;2.10;70.73;95103.22;5112712;28;1043;-60
2022/12/23 05:25:31;;;;;;;;;;;;;;;2.02;71.14;95095.03;5113780;28;1044;-60
2022/12/23 05:27:57;;;;;;;;;;;;;;;1.96;71.35;95098.13;5113654;28;1914;-60
2022/12/23 05:30:23;;;;;;;;;;;;;;;2.01;70.99;95097.78;5113603;28;1016;-60
2022/12/23 05:32:53;;;;;;;;;;;;;;;1.93;71.40;95100.97;5113665;28;1083;-60
2022/12/23 05:35:20;;;;;;;;;;;;;;;2.00;71.01;95106.66;5113722;28;965;-60
2022/12/23 05:37:46;;;;;;;;;;;;;;;2.08;71.04;95112.22;5113810;28;1019;-60
2022/12/23 05:40:13;;;;;;;;;;;;;;;2.16;70.60;95107.22;5112361;28;1049;-60
2022/12/23 05:42:39;;;;;;;;;;;;;;;2.14;71.03;95110.00;5113478;28;1044;-60
2022/12/23 05:45:06;;;;;;;;;;;;;;;2.20;71.45;95113.13;5112641;28;1034;-61
2022/12/23 05:47:33;;;;;;;;;;;;;;;2.22;71.30;95111.22;5112107;28;1971;-60
2022/12/23 05:49:59;;;;;;;;;;;;;;;2.22;70.99;95112.06;5113488;28;1122;-60
2022/12/23 05:52:25;;;;;;;;;;;;;;;2.18;70.84;95115.03;5113442;28;1106;-60
2022/12/23 05:54:51;;;;;;;;;;;;;;;2.06;71.39;95112.31;5113487;28;1068;-60
2022/12/23 05:57:17;;;;;;;;;;;;;;;2.13;71.67;95113.56;5113439;28;991;-60
2022/12/23 05:59:44;;;;;;;;;;;;;;;2.16;71.20;95120.41;5113335;28;1094;-60
2022/12/23 06:02:10;;;;;;;;;;;;;;;2.15;70.72;95119.56;5113289;28;1246;-60
2022/12/23 06:04:36;;;;;;;;;;;;;;;2.07;70.95;95124.56;5113509;28;1047;-60
2022/12/23 06:07:02;;;;;;;;;;;;;;;1.96;71.93;95119.22;5113422;28;1987;-60
2022/12/23 06:09:28;;;;;;;;;;;;;;;1.98;72.14;95125.22;5113372;28;1003;-59
2022/12/23 06:11:54;;;;;;;;;;;;;;;1.95;72.46;95117.53;5146312;27;1034;-59
2022/12/23 06:14:20;;;;;;;;;;;;;;;1.92;72.21;95121.22;5111981;28;1123;-59
2022/12/23 06:16:46;;;;;;;;;;;;;;;1.90;72.22;95117.03;5113461;28;1058;-60
2022/12/23 06:19:12;;;;;;;;;;;;;;;1.95;72.26;95115.75;5112077;28;1016;-59
2022/12/23 06:21:38;;;;;;;;;;;;;;;1.99;72.09;95108.44;5112079;28;940;-60
2022/12/23 06:24:05;;;;;;;;;;;;;;;2.10;71.81;95124.34;5115736;28;948;-59
2022/12/23 06:26:32;;;;;;;;;;;;;;;2.15;71.54;95121.38;5115615;28;1047;-59
2022/12/23 06:28:58;;;;;;;;;;;;;;;2.16;71.29;95120.41;5116673;28;2231;-59
2022/12/23 06:31:24;;;;;;;;;;;;;;;2.24;70.94;95122.50;5116637;28;1048;-59
2022/12/23 06:33:51;;;;;;;;;;;;;;;2.31;70.71;95129.03;5116874;28;975;-59
2022/12/23 06:36:17;;;;;;;;;;;;;;;2.30;70.69;95135.25;5115591;28;1040;-59
2022/12/23 06:38:43;;;;;;;;;;;;;;;2.30;70.74;95138.75;5115342;28;1095;-60
2022/12/23 06:41:09;;;;;;;;;;;;;;;2.34;71.47;95134.91;5115244;28;1036;-59
2022/12/23 06:43:35;;;;;;;;;;;;;;;2.41;70.32;95137.97;5116728;28;979;-59
2022/12/23 06:46:02;;;;;;;;;;;;;;;2.36;70.91;95133.97;5116465;28;1071;-59
2022/12/23 06:48:28;;;;;;;;;;;;;;;2.41;70.28;95142.38;5116393;28;1996;-59
2022/12/23 06:50:54;;;;;;;;;;;;;;;2.47;70.47;95137.50;5116362;28;1091;-60
2022/12/23 06:53:20;;;;;;;;;;;;;;;3.70;67.58;95138.00;5116275;28;1027;-60
2022/12/23 06:55:46;;;;;;;;;;;;;;;4.57;62.32;95139.91;5116311;28;1519;-60
2022/12/23 06:58:12;;;;;;;;;;;;;;;3.91;64.35;95130.16;5116494;28;995;-60
2022/12/23 07:00:38;;;;;;;;;;;;;;;3.52;65.93;95134.94;5116199;28;1254;-60
2022/12/23 07:03:04;;;;;;;;;;;;;;;3.29;66.82;95142.84;5116189;28;1106;-60
2022/12/23 07:05:30;;;;;;;;;;;;;;;3.16;66.79;95143.91;5116178;28;964;-60
2022/12/23 07:07:56;;;;;;;;;;;;;;;3.10;67.41;95140.75;5116000;28;1994;-60
2022/12/23 07:10:23;;;;;;;;;;;;;;;3.06;67.60;95136.66;5115980;27;999;-60
2022/12/23 07:12:49;;;;;;;;;;;;;;;3.22;66.84;95138.16;5115928;28;1027;-60
2022/12/23 07:15:15;;;;;;;;;;;;;;;3.28;66.83;95127.09;5116137;28;1031;-60
2022/12/23 07:17:41;;;;;;;;;;;;;;;8.31;53.87;95144.09;5115908;28;988;-60
2022/12/23 07:20:08;;;;;;;;;;;;;;;10.96;46.19;95154.84;5114651;28;1087;-60
2022/12/23 07:22:34;;;;;;;;;;;;;;;11.21;44.00;95159.25;5115756;28;1007;-60
2022/12/23 07:25:00;;;;;;;;;;;;;;;8.43;49.11;95136.81;5115703;28;1110;-60
2022/12/23 07:27:26;;;;;;;;;;;;;;;6.77;54.21;95132.63;5114360;28;1997;-60
2022/12/23 07:29:52;;;;;;;;;;;;;;;5.79;57.10;95139.41;5115878;28;996;-60
2022/12/23 07:32:18;;;;;;;;;;;;;;;5.24;58.91;95146.75;5114473;28;968;-60
2022/12/23 07:34:45;;;;;;;;;;;;;;;4.96;59.91;95143.75;5115324;27;1056;-60
2022/12/23 07:37:11;;;;;;;;;;;;;;;4.93;60.45;95138.69;5114378;28;979;-59
2022/12/23 07:39:37;;;;;;;;;;;;;;;5.01;60.38;95143.38;5115359;28;1027;-59
2022/12/23 07:42:03;;;;;;;;;;;;;;;5.11;60.21;95143.47;5115355;28;1087;-59
2022/12/23 07:44:29;;;;;;;;;;;;;;;5.06;60.63;95146.47;5115264;28;1079;-60
2022/12/23 07:46:55;;;;;;;;;;;;;;;5.02;60.54;95147.69;5115329;28;1902;-60
2022/12/23 07:49:21;;;;;;;;;;;;;;;5.16;60.26;95149.19;5115081;28;1217;-60
2022/12/23 07:51:48;;;;;;;;;;;;;;;5.31;59.94;95155.88;5115250;28;1111;-60
2022/12/23 07:54:14;;;;;;;;;;;;;;;5.57;59.74;95160.78;5115149;28;1011;-60
2022/12/23 07:56:40;;;;;;;;;;;;;;;5.71;59.04;95151.66;5115197;28;1008;-60
2022/12/23 07:59:06;;;;;;;;;;;;;;;5.68;57.76;95142.97;5115024;28;1039;-59
2022/12/23 08:01:32;;;;;;;;;;;;;;;5.64;58.12;95148.69;5114934;28;1218;-60
2022/12/23 08:03:58;;;;;;;;;;;;;;;5.73;57.98;95155.00;5115082;28;971;-60
2022/12/23 08:06:24;;;;;;;;;;;;;;;5.74;58.55;95156.69;5114898;28;1199;-60
2022/12/23 08:08:51;;;;;;;;;;;;;;;5.79;58.13;95158.00;5114766;28;1910;-60
2022/12/23 08:11:17;;;;;;;;;;;;;;;5.75;58.67;95155.72;5113667;28;1094;-60
2022/12/23 08:13:44;;;;;;;;;;;;;;;5.68;58.75;95156.25;5114717;28;1094;-61
2022/12/23 08:16:11;;;;;;;;;;;;;;;5.59;58.61;95156.19;5114737;28;1031;-61
2022/12/23 08:18:38;;;;;;;;;;;;;;;5.57;58.47;95158.13;5114572;28;1114;-60
2022/12/23 08:21:22;;;;;;;;;;;;;;;5.54;58.20;95151.28;5114558;28;1102;-60
2022/12/23 08:23:50;;;;;;;;;;;;;;;5.53;58.78;95151.41;5114611;28;1102;-60
2022/12/23 08:26:16;;;;;;;;;;;;;;;5.64;58.56;95146.03;5114682;28;971;-61
2022/12/23 08:28:43;;;;;;;;;;;;;;;6.14;57.73;95150.63;5114323;28;1980;-60
2022/12/23 08:31:08;;;;;;;;;;;;;;;6.54;56.52;95149.78;5114649;28;1043;-61
2022/12/23 08:33:36;;;;;;;;;;;;;;;6.76;56.19;95156.69;5114422;28;1011;-60
2022/12/23 08:36:04;;;;;;;;;;;;;;;7.07;55.75;95162.69;5114411;28;968;-60
2022/12/23 08:38:30;;;;;;;;;;;;;;;7.48;54.76;95163.41;5114242;28;1019;-61
2022/12/23 08:40:56;;;;;;;;;;;;;;;7.80;54.08;95154.25;5113085;28;1028;-60
2022/12/23 08:43:25;;;;;;;;;;;;;;;8.02;53.57;95150.38;5114320;28;977;-60
2022/12/23 08:45:52;;;;;;;;;;;;;;;8.17;53.37;95140.94;5113687;28;1003;-60
2022/12/23 08:48:18;;;;;;;;;;;;;;;8.31;53.12;95152.09;5114088;28;1975;-60
2022/12/23 08:50:45;;;;;;;;;;;;;;;8.63;51.92;95149.00;5114031;28;1087;-60
2022/12/23 08:53:11;;;;;;;;;;;;;;;9.01;50.51;95159.59;5113210;28;979;-60
2022/12/23 08:55:38;;;;;;;;;;;;;;;9.23;50.36;95161.81;5114180;28;1008;-61
2022/12/23 08:58:04;;;;;;;;;;;;;;;9.19;50.42;95152.44;5114234;28;1110;-62
2022/12/23 09:00:30;;;;;;;;;;;;;;;9.12;50.93;95149.53;5113939;28;1203;-62
2022/12/23 09:02:56;;;;;;;;;;;;;;;9.23;50.84;95159.13;5114073;28;956;-62
2022/12/23 09:05:22;;;;;;;;;;;;;;;9.36;50.42;95156.91;5112659;28;987;-62
2022/12/23 09:07:48;;;;;;;;;;;;;;;9.66;49.53;95152.16;5112972;28;1906;-62
2022/12/23 09:10:15;;;;;;;;;;;;;;;9.66;48.93;95162.84;5112962;28;1015;-62
2022/12/23 09:12:41;;;;;;;;;;;;;;;9.09;50.05;95149.00;5113948;28;1035;-61
2022/12/23 09:15:07;;;;;;;;;;;;;;;8.68;51.31;95144.06;5113852;28;1057;-61
2022/12/23 09:17:33;;;;;;;;;;;;;;;8.52;52.01;95146.56;5113927;28;972;-61
2022/12/23 09:19:59;;;;;;;;;;;;;;;8.98;51.16;95152.72;5113792;28;999;-61
2022/12/23 09:22:25;;;;;;;;;;;;;;;10.01;48.95;95149.56;5113985;28;964;-61
2022/12/23 09:24:51;;;;;;;;;;;;;;;12.01;44.96;95157.78;5112762;28;924;-63
2022/12/23 09:27:17;;;;;;;;;;;;;;;15.09;38.69;95170.41;5113681;28;1914;-63
2022/12/23 09:29:43;;;;;;;;;;;;;;;17.23;35.13;95181.13;5113604;28;1537;-61
2022/12/23 09:32:10;;;;;;;;;;;;;;;20.45;30.54;95208.25;5113028;28;1044;-62
2022/12/23 09:34:36;;;;;;;;;;;;;;;22.86;27.56;95225.22;5112972;28;1099;-62
2022/12/23 09:37:05;;;;;;;;;;;;;;;24.96;24.94;95243.09;5113337;28;1130;-62
2022/12/23 09:39:31;;;;;;;;;;;;;;;25.90;23.16;95252.41;5113196;28;1078;-62
2022/12/23 09:42:13;;;;;;;;;;;;;;;24.81;24.12;95246.41;5113400;28;908;-62
2022/12/23 09:45:17;;;;;;;;;;;;;;;22.07;27.25;95222.66;5113575;28;1046;-62
2022/12/23 09:47:44;;;;;;;;;;;;;;;19.92;29.51;95205.94;5018135;28;1902;-61
2022/12/23 09:50:39;;;;;;;;;;;;;;;21.64;27.83;95203.56;5050698;28;1048;-61
2022/12/23 09:53:07;;;;;;;;;;;;;;;22.31;26.73;95213.53;5080600;28;1336;-61
2022/12/23 09:55:38;;;;;;;;;;;;;;;22.25;26.88;95202.69;5113299;28;1028;-62
2022/12/23 09:58:21;;;;;;;;;;;;;;;19.81;28.97;95194.72;5116035;28;1035;-61
2022/12/23 10:04:58;;;;;;;;;;;;;;;20.45;28.86;95184.69;5111156;28;1274;-61
2022/12/23 10:07:44;;;;;;;;;;;;;;;20.61;28.30;95196.06;5117170;28;1905;-61
2022/12/23 10:10:30;;;;;;;;;;;;;;;19.46;29.59;95181.53;5117147;28;1217;-61
2022/12/23 10:12:59;;;;;;;;;;;;;;;18.43;31.33;95173.22;5117000;28;1093;-60
2022/12/23 10:15:28;;;;;;;;;;;;;;;16.84;33.81;95164.50;5116930;28;976;-59
2022/12/23 10:17:57;;;;;;;;;;;;;;;14.78;36.73;95156.13;5117005;28;1071;-61
2022/12/23 10:20:36;;;;;;;;;;;;;;;13.31;39.27;95146.75;5116896;28;991;-61
2022/12/23 10:23:03;;;;;;;;;;;;;;;12.20;41.58;95130.63;5117180;28;1038;-61
2022/12/23 10:25:36;;;;;;;;;;;;;;;11.29;43.12;95127.16;5116958;28;1030;-61
2022/12/23 10:28:02;;;;;;;;;;;;;;;10.58;44.74;95112.44;5115654;28;1905;-61
2022/12/23 10:30:32;;;;;;;;;;;;;;;10.20;46.75;95092.38;5116596;28;1036;-61
2022/12/23 10:33:01;;;;;;;;;;;;;;;9.86;46.97;95091.38;5116723;28;1082;-61
2022/12/23 10:35:27;;;;;;;;;;;;;;;9.65;47.94;95080.22;5116554;28;1099;-61
2022/12/23 10:37:53;;;;;;;;;;;;;;;9.66;48.45;95077.41;5116800;28;992;-61
2022/12/23 10:40:19;;;;;;;;;;;;;;;9.65;48.31;95080.22;5116610;28;1047;-61
2022/12/23 10:42:54;;;;;;;;;;;;;;;9.57;48.18;95079.19;5116660;28;1015;-61
2022/12/23 10:45:23;;;;;;;;;;;;;;;9.50;48.95;95071.97;5115315;28;1031;-62
2022/12/23 10:47:52;;;;;;;;;;;;;;;9.37;49.61;95075.03;5115006;28;1980;-61
2022/12/23 10:50:34;;;;;;;;;;;;;;;9.18;50.19;95084.06;5116263;28;1020;-61
2022/12/23 10:53:03;;;;;;;;;;;;;;;8.99;50.39;95083.25;5116443;28;1023;-60
2022/12/23 10:55:34;;;;;;;;;;;;;;;8.88;50.74;95075.47;5116288;28;1135;-61
2022/12/23 10:58:10;;;;;;;;;;;;;;;8.86;51.33;95079.28;5116302;28;974;-60
2022/12/23 11:00:37;;;;;;;;;;;;;;;8.92;51.14;95076.84;5116310;27;1539;-61
2022/12/23 11:03:14;;;;;;;;;;;;;;;8.92;51.38;95074.19;5116203;28;1096;-61
2022/12/23 11:05:40;;;;;;;;;;;;;;;8.94;50.55;95072.19;5115906;28;912;-61
2022/12/23 11:08:07;;;;;;;;;;;;;;;9.08;50.95;95078.81;5115941;28;1909;-61
2022/12/23 11:10:34;;;;;;;;;;;;;;;9.13;51.25;95081.84;5115366;28;1003;-61
2022/12/23 11:13:00;;;;;;;;;;;;;;;9.27;51.03;95069.78;5115838;28;1032;-61
2022/12/23 11:15:29;;;;;;;;;;;;;;;9.35;50.87;95074.34;5115972;28;964;-61
2022/12/23 11:17:56;;;;;;;;;;;;;;;9.15;51.46;95079.88;5115975;27;1003;-61
2022/12/23 11:20:23;;;;;;;;;;;;;;;9.08;51.79;95072.66;5115846;28;1035;-61
2022/12/23 11:22:50;;;;;;;;;;;;;;;9.11;51.83;95072.34;5115669;28;1047;-61
2022/12/23 11:25:27;;;;;;;;;;;;;;;9.43;50.89;95069.09;5115721;28;1028;-61
2022/12/23 11:27:57;;;;;;;;;;;;;;;10.06;49.96;95069.78;5115918;28;1971;-62
2022/12/23 11:30:23;;;;;;;;;;;;;;;10.70;47.77;95083.59;5115581;28;1079;-62
2022/12/23 11:32:50;;;;;;;;;;;;;;;10.85;47.40;95071.25;5115759;28;1022;-61
2022/12/23 11:35:23;;;;;;;;;;;;;;;10.65;48.14;95060.00;5115691;28;993;-59
2022/12/23 11:37:49;;;;;;;;;;;;;;;12.09;45.14;95074.69;5115503;28;975;-61
2022/12/23 11:40:24;;;;;;;;;;;;;;;11.39;46.51;95064.59;5115195;28;1091;-60
2022/12/23 11:42:56;;;;;;;;;;;;;;;12.11;45.16;95064.63;5115423;28;1087;-60
2022/12/23 11:45:23;;;;;;;;;;;;;;;14.79;40.24;95084.31;5115447;28;1006;-60
2022/12/23 11:47:49;;;;;;;;;;;;;;;15.40;38.81;95100.94;5115225;28;1902;-61
2022/12/23 11:50:24;;;;;;;;;;;;;;;13.72;41.15;95084.66;5115275;28;955;-60
2022/12/23 11:52:51;;;;;;;;;;;;;;;12.30;43.61;95074.94;5115206;27;1036;-60
2022/12/23 11:55:25;;;;;;;;;;;;;;;11.77;45.40;95071.06;5115145;28;1027;-60
2022/12/23 11:57:51;;;;;;;;;;;;;;;11.47;46.60;95067.25;5115283;28;1034;-60
2022/12/23 12:00:17;;;;;;;;;;;;;;;11.07;47.01;95060.91;5115078;28;1083;-61
2022/12/23 12:02:45;;;;;;;;;;;;;;;10.63;47.91;95040.59;5115020;28;1388;-60
2022/12/23 12:05:14;;;;;;;;;;;;;;;10.41;47.79;95031.34;5114773;28;1223;-60
2022/12/23 12:07:41;;;;;;;;;;;;;;;10.26;48.63;95025.78;5115023;28;1992;-60
2022/12/23 12:10:14;;;;;;;;;;;;;;;10.44;48.93;95035.56;5114916;28;1032;-60
2022/12/23 12:12:40;;;;;;;;;;;;;;;10.63;48.80;95035.25;5113865;28;1526;-60
2022/12/23 12:15:17;;;;;;;;;;;;;;;10.51;48.96;95033.91;5113689;28;984;-60
2022/12/23 12:17:45;;;;;;;;;;;;;;;10.21;49.00;95032.63;5114638;28;1028;-62
2022/12/23 12:20:28;;;;;;;;;;;;;;;10.00;50.00;95023.19;5114055;28;1043;-61
2022/12/23 12:23:05;;;;;;;;;;;;;;;9.70;51.06;95016.53;5114772;28;976;-60
2022/12/23 12:25:41;;;;;;;;;;;;;;;9.49;52.62;95017.75;5113441;28;965;-61
2022/12/23 12:28:12;;;;;;;;;;;;;;;9.37;52.77;95022.53;5114440;28;1906;-60
2022/12/23 12:30:43;;;;;;;;;;;;;;;9.35;52.92;95015.66;5114378;28;1098;-60
2022/12/23 12:33:12;;;;;;;;;;;;;;;9.41;52.57;95017.72;5113461;28;1027;-61
2022/12/23 12:35:50;;;;;;;;;;;;;;;9.41;53.11;95022.19;5113313;28;955;-60
2022/12/23 12:38:16;;;;;;;;;;;;;;;9.25;54.26;95029.09;5114445;28;1043;-61
2022/12/23 12:40:46;;;;;;;;;;;;;;;9.16;53.54;95033.56;5114190;28;979;-63
2022/12/23 12:43:18;;;;;;;;;;;;;;;9.12;54.25;95024.16;5114809;28;984;-60
2022/12/23 12:46:01;;;;;;;;;;;;;;;9.13;53.68;95030.34;5114276;28;1086;-60
2022/12/23 12:48:43;;;;;;;;;;;;;;;9.08;53.62;95013.97;5114135;28;1984;-60
2022/12/23 12:51:29;;;;;;;;;;;;;;;8.95;55.04;95025.03;5114182;28;1067;-60
2022/12/23 12:54:14;;;;;;;;;;;;;;;8.86;55.86;95026.81;5114362;28;996;-60
2022/12/23 12:56:46;;;;;;;;;;;;;;;8.77;56.53;95014.41;5114118;28;1047;-60
2022/12/23 12:59:17;;;;;;;;;;;;;;;8.89;55.38;95021.16;5112899;28;1079;-60
2022/12/23 13:01:43;;;;;;;;;;;;;;;8.98;54.28;95014.91;5113920;28;1099;-60
2022/12/23 13:04:12;;;;;;;;;;;;;;;8.93;55.81;95021.69;5114002;28;1265;-60
2022/12/23 13:06:46;;;;;;;;;;;;;;;8.81;56.09;95030.91;5113848;28;1083;-60
2022/12/23 13:09:12;;;;;;;;;;;;;;;8.91;55.31;95034.34;5113905;28;1974;-60
2022/12/23 13:11:42;;;;;;;;;;;;;;;9.02;54.77;95034.09;5113867;28;1051;-60
2022/12/23 13:14:24;;;;;;;;;;;;;;;9.14;55.02;95026.69;5113927;28;1000;-59
2022/12/23 13:16:50;;;;;;;;;;;;;;;9.16;55.11;95022.88;5114157;28;1031;-60
2022/12/23 13:19:21;;;;;;;;;;;;;;;9.13;56.02;95033.03;5113981;28;1027;-60
2022/12/23 13:21:47;;;;;;;;;;;;;;;9.18;55.04;95031.56;5113865;28;888;-60
2022/12/23 13:24:22;;;;;;;;;;;;;;;9.25;54.91;95034.44;5113873;28;999;-59
2022/12/23 13:27:07;;;;;;;;;;;;;;;9.15;56.63;95034.53;5113788;28;1035;-59
2022/12/23 13:29:33;;;;;;;;;;;;;;;9.07;55.80;95045.16;5113671;28;1039;-60
2022/12/23 13:32:18;;;;;;;;;;;;;;;8.95;55.41;95044.56;5114764;28;1042;-59
2022/12/23 13:34:50;;;;;;;;;;;;;;;8.78;56.91;95035.56;5117941;28;1047;-60
2022/12/23 13:37:19;;;;;;;;;;;;;;;8.67;58.39;95038.47;5116662;28;1015;-59
2022/12/23 13:39:54;;;;;;;;;;;;;;;8.65;58.29;95039.59;5117894;28;1020;-60
2022/12/23 13:42:32;;;;;;;;;;;;;;;8.66;57.19;95036.78;5117672;28;1106;-60
2022/12/23 13:44:58;;;;;;;;;;;;;;;8.71;57.18;95039.00;5117563;28;977;-60
2022/12/23 13:47:46;;;;;;;;;;;;;;;8.72;56.76;95038.81;5117442;28;1901;-60